sensor_id;sensor_type;location;lat;lon;timestamp;pressure;altitude;pressure_sealevel;temperature;humidity
56831;BME280;42713;42.676;23.352;2023-08-30T00:02:50;93871.31;;;22.47;62.17
56831;BME280;42713;42.676;23.352;2023-08-30T00:05:25;93893.75;;;22.46;62.11
56831;BME280;42713;42.676;23.352;2023-08-30T00:07:55;93875.53;;;22.35;62.83
56831;BME280;42713;42.676;23.352;2023-08-30T00:10:51;93865.78;;;22.27;62.25
56831;BME280;42713;42.676;23.352;2023-08-30T00:13:26;93868.47;;;22.15;63.35
56831;BME280;42713;42.676;23.352;2023-08-30T00:19:20;93869.16;;;21.99;64.16
56831;BME280;42713;42.676;23.352;2023-08-30T00:22:06;93867.06;;;21.80;64.79
56831;BME280;42713;42.676;23.352;2023-08-30T00:24:43;93887.06;;;21.74;64.42
56831;BME280;42713;42.676;23.352;2023-08-30T00:27:33;93867.25;;;21.38;63.13
56831;BME280;42713;42.676;23.352;2023-08-30T00:30:16;93886.91;;;21.45;64.43
56831;BME280;42713;42.676;23.352;2023-08-30T00:32:42;93879.88;;;21.28;64.84
56831;BME280;42713;42.676;23.352;2023-08-30T00:35:21;93853.34;;;21.07;65.10
56831;BME280;42713;42.676;23.352;2023-08-30T00:38:17;93863.66;;;21.09;64.14
56831;BME280;42713;42.676;23.352;2023-08-30T00:40:58;93855.09;;;20.91;64.20
56831;BME280;42713;42.676;23.352;2023-08-30T00:43:34;93858.84;;;20.90;64.80
56831;BME280;42713;42.676;23.352;2023-08-30T00:46:10;93873.50;;;20.96;64.23
56831;BME280;42713;42.676;23.352;2023-08-30T00:49:13;93885.94;;;21.04;63.61
56831;BME280;42713;42.676;23.352;2023-08-30T00:51:43;93879.50;;;21.05;62.94
56831;BME280;42713;42.676;23.352;2023-08-30T00:54:14;93871.53;;;21.05;62.80
56831;BME280;42713;42.676;23.352;2023-08-30T00:56:51;93858.56;;;21.04;62.67
56831;BME280;42713;42.676;23.352;2023-08-30T00:59:21;93871.63;;;21.09;62.66
56831;BME280;42713;42.676;23.352;2023-08-30T01:02:11;93881.19;;;21.10;62.71
56831;BME280;42713;42.676;23.352;2023-08-30T01:04:48;93894.03;;;21.08;63.40
56831;BME280;42713;42.676;23.352;2023-08-30T01:07:19;93892.13;;;20.96;63.37
56831;BME280;42713;42.676;23.352;2023-08-30T01:10:00;93899.47;;;20.99;62.93
56831;BME280;42713;42.676;23.352;2023-08-30T01:13:09;93897.50;;;21.08;63.63
56831;BME280;42713;42.676;23.352;2023-08-30T01:15:57;93900.50;;;21.19;64.66
56831;BME280;42713;42.676;23.352;2023-08-30T01:18:41;93906.06;;;21.14;63.91
56831;BME280;42713;42.676;23.352;2023-08-30T01:27:52;93925.69;;;21.22;61.24
56831;BME280;42713;42.676;23.352;2023-08-30T01:30:24;93923.31;;;21.08;61.29
56831;BME280;42713;42.676;23.352;2023-08-30T01:33:09;93905.38;;;21.05;61.66
56831;BME280;42713;42.676;23.352;2023-08-30T01:38:51;93908.09;;;20.96;62.49
56831;BME280;42713;42.676;23.352;2023-08-30T01:41:20;93900.97;;;20.88;63.05
56831;BME280;42713;42.676;23.352;2023-08-30T01:44:20;93903.72;;;20.79;63.91
56831;BME280;42713;42.676;23.352;2023-08-30T01:46:50;93906.72;;;20.77;63.50
56831;BME280;42713;42.676;23.352;2023-08-30T01:49:35;93906.38;;;20.79;62.75
56831;BME280;42713;42.676;23.352;2023-08-30T01:52:12;93887.63;;;20.75;62.27
56831;BME280;42713;42.676;23.352;2023-08-30T01:54:54;93890.53;;;20.82;62.38
56831;BME280;42713;42.676;23.352;2023-08-30T01:57:40;93903.63;;;20.88;62.10
56831;BME280;42713;42.676;23.352;2023-08-30T02:00:06;93916.53;;;20.98;61.60
56831;BME280;42713;42.676;23.352;2023-08-30T02:02:33;93918.56;;;21.01;61.46
56831;BME280;42713;42.676;23.352;2023-08-30T02:04:59;93906.47;;;21.04;64.88
56831;BME280;42713;42.676;23.352;2023-08-30T02:07:39;93906.94;;;21.18;65.39
56831;BME280;42713;42.676;23.352;2023-08-30T02:10:10;93892.94;;;21.09;63.90
56831;BME280;42713;42.676;23.352;2023-08-30T02:12:47;93891.31;;;21.17;62.86
56831;BME280;42713;42.676;23.352;2023-08-30T02:15:14;93914.31;;;21.34;63.83
56831;BME280;42713;42.676;23.352;2023-08-30T02:17:41;93903.19;;;21.32;64.65
56831;BME280;42713;42.676;23.352;2023-08-30T02:20:07;93893.88;;;21.25;62.36
56831;BME280;42713;42.676;23.352;2023-08-30T02:22:33;93906.50;;;21.28;62.79
56831;BME280;42713;42.676;23.352;2023-08-30T02:24:59;93890.66;;;21.20;64.50
56831;BME280;42713;42.676;23.352;2023-08-30T02:27:26;93872.53;;;21.13;65.44
56831;BME280;42713;42.676;23.352;2023-08-30T02:29:54;93868.66;;;21.10;63.56
56831;BME280;42713;42.676;23.352;2023-08-30T02:32:20;93888.84;;;21.11;63.44
56831;BME280;42713;42.676;23.352;2023-08-30T02:34:51;93891.38;;;20.95;64.04
56831;BME280;42713;42.676;23.352;2023-08-30T02:37:20;93879.34;;;20.77;64.21
56831;BME280;42713;42.676;23.352;2023-08-30T02:39:49;93878.88;;;20.75;64.63
56831;BME280;42713;42.676;23.352;2023-08-30T02:42:51;93888.41;;;20.76;64.26
56831;BME280;42713;42.676;23.352;2023-08-30T02:45:22;93900.06;;;20.83;63.48
56831;BME280;42713;42.676;23.352;2023-08-30T02:47:57;93895.19;;;20.86;62.43
56831;BME280;42713;42.676;23.352;2023-08-30T02:53:29;93875.47;;;20.87;61.72
56831;BME280;42713;42.676;23.352;2023-08-30T02:55:59;93867.28;;;20.71;61.81
56831;BME280;42713;42.676;23.352;2023-08-30T02:58:25;93865.72;;;20.69;61.74
56831;BME280;42713;42.676;23.352;2023-08-30T03:00:56;93867.13;;;20.76;61.07
56831;BME280;42713;42.676;23.352;2023-08-30T03:03:31;93883.91;;;20.89;60.95
56831;BME280;42713;42.676;23.352;2023-08-30T03:06:07;93887.03;;;20.91;60.85
56831;BME280;42713;42.676;23.352;2023-08-30T03:15:17;93875.41;;;20.95;60.19
56831;BME280;42713;42.676;23.352;2023-08-30T03:18:43;93895.94;;;21.07;60.12
56831;BME280;42713;42.676;23.352;2023-08-30T03:21:47;93883.22;;;20.92;59.77
56831;BME280;42713;42.676;23.352;2023-08-30T03:31:54;93894.66;;;20.92;60.14
56831;BME280;42713;42.676;23.352;2023-08-30T03:38:26;93879.47;;;20.93;61.47
56831;BME280;42713;42.676;23.352;2023-08-30T03:54:15;93886.34;;;20.94;64.28
56831;BME280;42713;42.676;23.352;2023-08-30T04:00:52;93873.22;;;20.76;64.96
56831;BME280;42713;42.676;23.352;2023-08-30T04:04:04;93893.28;;;20.74;65.78
56831;BME280;42713;42.676;23.352;2023-08-30T04:07:01;93921.34;;;20.83;66.48
56831;BME280;42713;42.676;23.352;2023-08-30T04:09:51;93895.50;;;20.63;66.79
56831;BME280;42713;42.676;23.352;2023-08-30T04:15:40;93905.28;;;20.80;67.39
56831;BME280;42713;42.676;23.352;2023-08-30T04:18:46;93884.34;;;20.69;68.04
56831;BME280;42713;42.676;23.352;2023-08-30T04:22:15;93903.31;;;20.68;68.76
56831;BME280;42713;42.676;23.352;2023-08-30T04:27:28;93909.94;;;20.83;69.19
56831;BME280;42713;42.676;23.352;2023-08-30T04:33:17;93924.28;;;20.91;69.69
56831;BME280;42713;42.676;23.352;2023-08-30T04:35:57;93937.97;;;21.02;69.98
56831;BME280;42713;42.676;23.352;2023-08-30T04:38:36;93950.97;;;21.15;68.94
56831;BME280;42713;42.676;23.352;2023-08-30T04:41:10;93943.22;;;21.10;68.82
56831;BME280;42713;42.676;23.352;2023-08-30T04:43:52;93947.41;;;21.11;69.36
56831;BME280;42713;42.676;23.352;2023-08-30T04:46:29;93968.97;;;21.19;68.89
56831;BME280;42713;42.676;23.352;2023-08-30T04:49:13;93964.06;;;21.08;68.43
56831;BME280;42713;42.676;23.352;2023-08-30T04:51:59;93973.38;;;21.14;69.16
56831;BME280;42713;42.676;23.352;2023-08-30T04:54:33;93958.28;;;21.06;69.04
56831;BME280;42713;42.676;23.352;2023-08-30T04:57:26;93952.94;;;21.06;69.16
56831;BME280;42713;42.676;23.352;2023-08-30T05:02:41;93952.94;;;21.06;68.43
56831;BME280;42713;42.676;23.352;2023-08-30T05:11:25;93957.16;;;21.07;68.57
56831;BME280;42713;42.676;23.352;2023-08-30T05:14:04;93944.72;;;20.99;68.64
56831;BME280;42713;42.676;23.352;2023-08-30T05:16:39;93967.81;;;21.07;68.30
56831;BME280;42713;42.676;23.352;2023-08-30T05:19:39;93960.81;;;21.03;68.51
56831;BME280;42713;42.676;23.352;2023-08-30T05:22:19;93959.31;;;21.14;68.86
56831;BME280;42713;42.676;23.352;2023-08-30T05:24:51;93950.28;;;21.06;68.23
56831;BME280;42713;42.676;23.352;2023-08-30T05:27:16;93949.19;;;21.07;67.67
56831;BME280;42713;42.676;23.352;2023-08-30T05:29:43;93978.19;;;21.21;67.80
56831;BME280;42713;42.676;23.352;2023-08-30T05:32:08;93981.31;;;21.23;67.29
56831;BME280;42713;42.676;23.352;2023-08-30T05:34:34;93991.44;;;21.30;66.46
56831;BME280;42713;42.676;23.352;2023-08-30T05:36:59;93982.66;;;21.29;66.05
56831;BME280;42713;42.676;23.352;2023-08-30T05:39:25;93977.44;;;21.33;66.80
56831;BME280;42713;42.676;23.352;2023-08-30T05:41:50;93983.19;;;21.23;58.37
56831;BME280;42713;42.676;23.352;2023-08-30T05:44:16;93984.28;;;21.22;59.48
56831;BME280;42713;42.676;23.352;2023-08-30T05:46:41;93973.63;;;21.22;59.91
56831;BME280;42713;42.676;23.352;2023-08-30T05:49:07;93972.53;;;21.23;58.76
56831;BME280;42713;42.676;23.352;2023-08-30T05:51:32;93970.97;;;21.22;57.76
56831;BME280;42713;42.676;23.352;2023-08-30T05:53:57;93981.09;;;21.28;58.44
56831;BME280;42713;42.676;23.352;2023-08-30T05:56:23;93978.66;;;21.36;59.12
56831;BME280;42713;42.676;23.352;2023-08-30T05:58:49;93978.69;;;21.48;58.97
56831;BME280;42713;42.676;23.352;2023-08-30T06:01:18;93967.16;;;21.56;58.47
56831;BME280;42713;42.676;23.352;2023-08-30T06:03:44;93969.78;;;21.65;57.92
56831;BME280;42713;42.676;23.352;2023-08-30T06:06:11;93971.09;;;21.71;57.64
56831;BME280;42713;42.676;23.352;2023-08-30T06:08:36;93980.78;;;21.76;56.17
56831;BME280;42713;42.676;23.352;2023-08-30T06:11:01;93974.22;;;21.73;55.73
56831;BME280;42713;42.676;23.352;2023-08-30T06:13:27;93967.78;;;21.74;56.16
56831;BME280;42713;42.676;23.352;2023-08-30T06:15:56;93973.88;;;21.75;55.99
56831;BME280;42713;42.676;23.352;2023-08-30T06:18:21;93975.13;;;21.77;56.91
56831;BME280;42713;42.676;23.352;2023-08-30T06:24:18;93973.56;;;21.76;56.08
56831;BME280;42713;42.676;23.352;2023-08-30T07:08:57;93954.50;;;22.77;52.43
56831;BME280;42713;42.676;23.352;2023-08-30T07:11:25;93947.91;;;22.87;52.64
56831;BME280;42713;42.676;23.352;2023-08-30T07:14:01;93963.09;;;22.99;50.44
56831;BME280;42713;42.676;23.352;2023-08-30T07:17:07;93967.66;;;22.98;50.33
56831;BME280;42713;42.676;23.352;2023-08-30T07:19:46;93957.13;;;22.90;49.44
56831;BME280;42713;42.676;23.352;2023-08-30T07:22:23;93942.31;;;22.92;49.28
56831;BME280;42713;42.676;23.352;2023-08-30T07:24:57;93951.09;;;22.93;50.10
56831;BME280;42713;42.676;23.352;2023-08-30T07:27:28;93961.91;;;22.96;50.37
56831;BME280;42713;42.676;23.352;2023-08-30T07:30:05;93962.63;;;23.09;51.36
56831;BME280;42713;42.676;23.352;2023-08-30T07:32:49;93970.28;;;23.11;50.05
56831;BME280;42713;42.676;23.352;2023-08-30T07:35:20;93958.31;;;23.05;50.60
56831;BME280;42713;42.676;23.352;2023-08-30T07:37:49;93970.81;;;23.16;50.12
56831;BME280;42713;42.676;23.352;2023-08-30T07:40:31;93963.28;;;23.06;50.28
56831;BME280;42713;42.676;23.352;2023-08-30T07:43:02;93972.06;;;23.19;51.15
56831;BME280;42713;42.676;23.352;2023-08-30T07:45:30;93949.44;;;23.16;50.51
56831;BME280;42713;42.676;23.352;2023-08-30T07:48:07;93948.81;;;23.20;50.61
56831;BME280;42713;42.676;23.352;2023-08-30T07:50:38;93949.88;;;23.31;51.07
56831;BME280;42713;42.676;23.352;2023-08-30T07:53:09;93946.06;;;23.32;50.09
56831;BME280;42713;42.676;23.352;2023-08-30T07:55:47;93959.25;;;23.41;51.43
56831;BME280;42713;42.676;23.352;2023-08-30T07:58:19;93952.09;;;23.29;49.61
56831;BME280;42713;42.676;23.352;2023-08-30T08:00:51;93952.69;;;23.22;50.35
56831;BME280;42713;42.676;23.352;2023-08-30T08:03:23;93961.31;;;23.31;50.61
56831;BME280;42713;42.676;23.352;2023-08-30T08:05:58;93951.75;;;23.30;50.54
56831;BME280;42713;42.676;23.352;2023-08-30T08:08:35;93970.56;;;23.50;50.69
56831;BME280;42713;42.676;23.352;2023-08-30T08:13:41;93971.47;;;23.70;48.75
56831;BME280;42713;42.676;23.352;2023-08-30T08:16:19;93954.28;;;23.71;49.33
56831;BME280;42713;42.676;23.352;2023-08-30T08:18:48;93952.47;;;23.75;49.17
56831;BME280;42713;42.676;23.352;2023-08-30T08:21:25;93974.00;;;23.95;49.52
56831;BME280;42713;42.676;23.352;2023-08-30T08:23:57;93968.28;;;23.97;49.52
56831;BME280;42713;42.676;23.352;2023-08-30T08:26:28;93970.50;;;24.11;49.60
56831;BME280;42713;42.676;23.352;2023-08-30T08:29:00;93969.59;;;24.19;48.45
56831;BME280;42713;42.676;23.352;2023-08-30T08:31:26;93978.19;;;24.28;48.73
56831;BME280;42713;42.676;23.352;2023-08-30T08:34:07;93976.03;;;24.34;49.10
56831;BME280;42713;42.676;23.352;2023-08-30T08:36:33;93983.25;;;24.49;46.30
56831;BME280;42713;42.676;23.352;2023-08-30T08:38:58;93987.47;;;24.50;46.09
56831;BME280;42713;42.676;23.352;2023-08-30T08:41:27;93972.53;;;24.49;44.09
56831;BME280;42713;42.676;23.352;2023-08-30T08:44:00;93982.81;;;24.47;43.92
56831;BME280;42713;42.676;23.352;2023-08-30T08:46:26;93988.53;;;24.46;43.04
56831;BME280;42713;42.676;23.352;2023-08-30T08:48:54;93989.81;;;24.36;42.59
56831;BME280;42713;42.676;23.352;2023-08-30T08:51:21;93985.94;;;24.33;43.88
56831;BME280;42713;42.676;23.352;2023-08-30T08:53:49;93978.28;;;24.32;43.11
56831;BME280;42713;42.676;23.352;2023-08-30T08:56:15;93984.22;;;24.25;43.92
56831;BME280;42713;42.676;23.352;2023-08-30T08:58:42;93983.63;;;24.32;44.23
56831;BME280;42713;42.676;23.352;2023-08-30T09:01:12;93983.97;;;24.30;44.23
56831;BME280;42713;42.676;23.352;2023-08-30T09:03:38;93972.41;;;24.26;43.79
56831;BME280;42713;42.676;23.352;2023-08-30T09:06:04;93974.81;;;24.31;44.42
56831;BME280;42713;42.676;23.352;2023-08-30T09:08:30;93977.84;;;24.30;44.54
56831;BME280;42713;42.676;23.352;2023-08-30T09:10:55;93966.16;;;24.38;44.87
56831;BME280;42713;42.676;23.352;2023-08-30T09:13:21;93971.78;;;24.49;45.33
56831;BME280;42713;42.676;23.352;2023-08-30T09:15:48;93973.13;;;24.59;44.59
56831;BME280;42713;42.676;23.352;2023-08-30T09:18:17;93973.47;;;24.73;44.42
56831;BME280;42713;42.676;23.352;2023-08-30T09:20:43;93974.28;;;24.77;44.13
56831;BME280;42713;42.676;23.352;2023-08-30T09:23:27;93967.88;;;24.82;44.45
56831;BME280;42713;42.676;23.352;2023-08-30T09:25:56;93967.38;;;24.96;44.99
56831;BME280;42713;42.676;23.352;2023-08-30T09:28:22;93961.34;;;24.99;43.65
56831;BME280;42713;42.676;23.352;2023-08-30T09:30:51;93972.19;;;25.06;44.12
56831;BME280;42713;42.676;23.352;2023-08-30T09:33:29;93971.50;;;25.09;43.79
56831;BME280;42713;42.676;23.352;2023-08-30T09:35:55;93968.44;;;25.11;43.67
56831;BME280;42713;42.676;23.352;2023-08-30T09:38:21;93968.25;;;25.20;44.32
56831;BME280;42713;42.676;23.352;2023-08-30T09:40:46;93968.44;;;25.30;44.30
56831;BME280;42713;42.676;23.352;2023-08-30T09:43:13;93967.88;;;25.41;43.58
56831;BME280;42713;42.676;23.352;2023-08-30T09:45:39;93962.00;;;25.55;43.71
56831;BME280;42713;42.676;23.352;2023-08-30T09:48:05;93954.16;;;25.66;43.38
56831;BME280;42713;42.676;23.352;2023-08-30T09:50:35;93940.84;;;25.73;43.09
56831;BME280;42713;42.676;23.352;2023-08-30T09:53:08;93955.56;;;25.83;42.79
56831;BME280;42713;42.676;23.352;2023-08-30T09:55:37;93948.31;;;25.83;41.72
56831;BME280;42713;42.676;23.352;2023-08-30T09:58:03;93942.28;;;25.90;42.48
56831;BME280;42713;42.676;23.352;2023-08-30T10:00:33;93947.34;;;25.72;42.03
56831;BME280;42713;42.676;23.352;2023-08-30T10:02:59;93945.25;;;25.61;42.59
56831;BME280;42713;42.676;23.352;2023-08-30T10:05:26;93940.78;;;25.69;42.44
56831;BME280;42713;42.676;23.352;2023-08-30T10:07:52;93941.94;;;25.68;42.54
56831;BME280;42713;42.676;23.352;2023-08-30T10:10:19;93941.56;;;25.70;41.91
56831;BME280;42713;42.676;23.352;2023-08-30T10:12:46;93946.09;;;25.66;42.04
56831;BME280;42713;42.676;23.352;2023-08-30T10:15:12;93942.75;;;25.72;42.26
56831;BME280;42713;42.676;23.352;2023-08-30T10:17:40;93927.13;;;25.78;42.35
56831;BME280;42713;42.676;23.352;2023-08-30T10:20:10;93928.91;;;25.93;41.80
56831;BME280;42713;42.676;23.352;2023-08-30T10:22:40;93924.84;;;26.03;41.82
56831;BME280;42713;42.676;23.352;2023-08-30T10:25:10;93920.50;;;25.95;41.65
56831;BME280;42713;42.676;23.352;2023-08-30T10:27:39;93925.63;;;26.04;42.27
56831;BME280;42713;42.676;23.352;2023-08-30T10:30:07;93930.41;;;26.14;41.44
56831;BME280;42713;42.676;23.352;2023-08-30T10:32:41;93931.25;;;26.22;41.05
56831;BME280;42713;42.676;23.352;2023-08-30T10:35:11;93921.84;;;26.08;40.77
56831;BME280;42713;42.676;23.352;2023-08-30T10:37:37;93928.44;;;26.11;41.10
56831;BME280;42713;42.676;23.352;2023-08-30T10:40:04;93922.69;;;26.13;41.50
56831;BME280;42713;42.676;23.352;2023-08-30T10:42:31;93921.38;;;26.26;42.16
56831;BME280;42713;42.676;23.352;2023-08-30T10:45:03;93911.84;;;26.32;40.91
56831;BME280;42713;42.676;23.352;2023-08-30T10:47:31;93919.94;;;26.36;40.70
56831;BME280;42713;42.676;23.352;2023-08-30T10:49:58;93916.63;;;26.46;41.05
56831;BME280;42713;42.676;23.352;2023-08-30T10:52:25;93907.19;;;26.56;40.62
56831;BME280;42713;42.676;23.352;2023-08-30T10:54:52;93906.13;;;26.64;40.95
56831;BME280;42713;42.676;23.352;2023-08-30T10:57:24;93907.34;;;26.70;40.75
56831;BME280;42713;42.676;23.352;2023-08-30T11:00:07;93907.72;;;26.69;40.32
56831;BME280;42713;42.676;23.352;2023-08-30T11:02:35;93910.78;;;26.67;40.93
56831;BME280;42713;42.676;23.352;2023-08-30T11:05:01;93906.16;;;26.68;40.87
56831;BME280;42713;42.676;23.352;2023-08-30T11:07:30;93909.41;;;26.81;40.76
56831;BME280;42713;42.676;23.352;2023-08-30T11:09:57;93902.66;;;26.94;40.85
56831;BME280;42713;42.676;23.352;2023-08-30T11:12:22;93902.25;;;27.26;40.67
56831;BME280;42713;42.676;23.352;2023-08-30T11:14:49;93903.34;;;27.63;40.08
56831;BME280;42713;42.676;23.352;2023-08-30T11:17:17;93900.50;;;27.90;38.65
56831;BME280;42713;42.676;23.352;2023-08-30T11:19:43;93897.88;;;28.01;38.46
56831;BME280;42713;42.676;23.352;2023-08-30T11:22:14;93898.38;;;28.14;38.76
56831;BME280;42713;42.676;23.352;2023-08-30T11:24:42;93888.44;;;28.25;38.50
56831;BME280;42713;42.676;23.352;2023-08-30T11:27:07;93882.75;;;28.37;38.07
56831;BME280;42713;42.676;23.352;2023-08-30T11:29:33;93889.75;;;28.56;37.72
56831;BME280;42713;42.676;23.352;2023-08-30T11:31:58;93879.06;;;28.75;38.06
56831;BME280;42713;42.676;23.352;2023-08-30T11:36:55;93867.97;;;29.01;36.97
56831;BME280;42713;42.676;23.352;2023-08-30T11:39:22;93866.47;;;29.15;36.92
56831;BME280;42713;42.676;23.352;2023-08-30T11:41:50;93865.34;;;29.27;36.88
56831;BME280;42713;42.676;23.352;2023-08-30T11:44:15;93864.25;;;29.42;35.81
56831;BME280;42713;42.676;23.352;2023-08-30T11:46:42;93856.53;;;29.52;34.92
56831;BME280;42713;42.676;23.352;2023-08-30T11:49:07;93851.50;;;29.50;35.67
56831;BME280;42713;42.676;23.352;2023-08-30T11:51:33;93845.75;;;29.52;35.65
56831;BME280;42713;42.676;23.352;2023-08-30T11:53:59;93844.19;;;29.50;35.34
56831;BME280;42713;42.676;23.352;2023-08-30T11:56:27;93845.75;;;29.52;34.99
56831;BME280;42713;42.676;23.352;2023-08-30T11:58:53;93848.44;;;29.55;34.86
56831;BME280;42713;42.676;23.352;2023-08-30T12:01:18;93847.28;;;29.60;35.06
56831;BME280;42713;42.676;23.352;2023-08-30T12:03:44;93841.50;;;29.65;34.26
56831;BME280;42713;42.676;23.352;2023-08-30T12:06:16;93844.56;;;29.74;34.33
56831;BME280;42713;42.676;23.352;2023-08-30T12:08:43;93839.97;;;29.68;33.08
56831;BME280;42713;42.676;23.352;2023-08-30T12:11:20;93837.63;;;29.77;32.64
56831;BME280;42713;42.676;23.352;2023-08-30T12:13:46;93833.78;;;29.81;33.13
56831;BME280;42713;42.676;23.352;2023-08-30T12:16:19;93834.53;;;29.86;32.56
56831;BME280;42713;42.676;23.352;2023-08-30T12:18:45;93823.00;;;29.78;31.87
56831;BME280;42713;42.676;23.352;2023-08-30T12:21:14;93825.28;;;29.79;32.68
56831;BME280;42713;42.676;23.352;2023-08-30T12:23:40;93825.66;;;29.92;33.01
56831;BME280;42713;42.676;23.352;2023-08-30T12:26:08;93825.28;;;30.01;33.12
56831;BME280;42713;42.676;23.352;2023-08-30T12:28:36;93819.09;;;30.15;32.48
56831;BME280;42713;42.676;23.352;2023-08-30T12:31:02;93817.47;;;30.28;32.57
56831;BME280;42713;42.676;23.352;2023-08-30T12:33:33;93817.41;;;30.47;32.18
56831;BME280;42713;42.676;23.352;2023-08-30T12:35:58;93810.84;;;30.51;29.49
56831;BME280;42713;42.676;23.352;2023-08-30T12:38:26;93798.50;;;30.50;28.10
56831;BME280;42713;42.676;23.352;2023-08-30T12:40:53;93796.19;;;30.56;29.28
56831;BME280;42713;42.676;23.352;2023-08-30T12:43:20;93796.19;;;30.56;27.95
56831;BME280;42713;42.676;23.352;2023-08-30T12:45:46;93796.53;;;30.62;29.64
56831;BME280;42713;42.676;23.352;2023-08-30T12:48:13;93778.72;;;30.75;30.35
56831;BME280;42713;42.676;23.352;2023-08-30T12:50:42;93787.13;;;30.88;28.30
56831;BME280;42713;42.676;23.352;2023-08-30T12:53:08;93785.59;;;30.87;27.09
56831;BME280;42713;42.676;23.352;2023-08-30T13:07:40;93774.34;;;31.48;27.14
56831;BME280;42713;42.676;23.352;2023-08-30T13:10:52;93763.78;;;31.61;27.11
56831;BME280;42713;42.676;23.352;2023-08-30T13:18:17;93770.78;;;31.97;25.55
56831;BME280;42713;42.676;23.352;2023-08-30T13:20:43;93772.25;;;32.05;25.49
56831;BME280;42713;42.676;23.352;2023-08-30T13:23:10;93773.41;;;32.42;25.08
56831;BME280;42713;42.676;23.352;2023-08-30T13:25:40;93772.66;;;32.69;24.84
56831;BME280;42713;42.676;23.352;2023-08-30T13:28:05;93779.00;;;32.90;22.91
56831;BME280;42713;42.676;23.352;2023-08-30T13:30:31;93765.78;;;32.92;21.52
56831;BME280;42713;42.676;23.352;2023-08-30T13:33:01;93769.47;;;33.05;21.08
56831;BME280;42713;42.676;23.352;2023-08-30T13:35:27;93782.34;;;32.98;20.02
56831;BME280;42713;42.676;23.352;2023-08-30T13:37:53;93769.28;;;32.62;20.40
56831;BME280;42713;42.676;23.352;2023-08-30T13:40:18;93761.78;;;32.42;20.16
56831;BME280;42713;42.676;23.352;2023-08-30T13:42:44;93787.50;;;32.61;20.38
56831;BME280;42713;42.676;23.352;2023-08-30T13:45:09;93784.69;;;32.68;20.29
56831;BME280;42713;42.676;23.352;2023-08-30T13:47:35;93791.88;;;32.82;20.12
56831;BME280;42713;42.676;23.352;2023-08-30T13:50:01;93786.34;;;32.89;19.54
56831;BME280;42713;42.676;23.352;2023-08-30T13:52:29;93783.81;;;32.79;19.74
56831;BME280;42713;42.676;23.352;2023-08-30T13:54:55;93801.31;;;33.01;19.42
56831;BME280;42713;42.676;23.352;2023-08-30T13:57:21;93779.88;;;33.11;20.01
56831;BME280;42713;42.676;23.352;2023-08-30T13:59:49;93792.19;;;33.15;20.00
56831;BME280;42713;42.676;23.352;2023-08-30T14:02:17;93800.34;;;33.15;19.11
56831;BME280;42713;42.676;23.352;2023-08-30T14:04:43;93791.72;;;33.20;19.77
56831;BME280;42713;42.676;23.352;2023-08-30T14:07:08;93771.34;;;33.36;19.39
56831;BME280;42713;42.676;23.352;2023-08-30T14:09:37;93781.78;;;33.61;19.33
56831;BME280;42713;42.676;23.352;2023-08-30T14:12:03;93791.00;;;33.67;18.91
56831;BME280;42713;42.676;23.352;2023-08-30T14:14:29;93782.50;;;33.86;19.64
56831;BME280;42713;42.676;23.352;2023-08-30T14:16:55;93784.38;;;34.33;19.16
56831;BME280;42713;42.676;23.352;2023-08-30T14:19:20;93806.47;;;34.35;18.04
56831;BME280;42713;42.676;23.352;2023-08-30T14:21:46;93787.53;;;34.31;18.72
56831;BME280;42713;42.676;23.352;2023-08-30T14:24:12;93773.88;;;34.35;18.71
56831;BME280;42713;42.676;23.352;2023-08-30T14:26:38;93793.09;;;34.24;19.01
56831;BME280;42713;42.676;23.352;2023-08-30T14:29:03;93784.47;;;34.29;19.32
56831;BME280;42713;42.676;23.352;2023-08-30T14:31:29;93789.25;;;34.01;19.20
56831;BME280;42713;42.676;23.352;2023-08-30T14:33:55;93795.81;;;34.04;19.04
56831;BME280;42713;42.676;23.352;2023-08-30T14:36:41;93810.94;;;34.05;19.36
56831;BME280;42713;42.676;23.352;2023-08-30T14:39:10;93797.84;;;34.00;19.30
56831;BME280;42713;42.676;23.352;2023-08-30T14:41:35;93792.53;;;34.33;19.05
56831;BME280;42713;42.676;23.352;2023-08-30T14:44:02;93806.72;;;34.44;19.01
56831;BME280;42713;42.676;23.352;2023-08-30T14:46:28;93808.50;;;34.30;19.12
56831;BME280;42713;42.676;23.352;2023-08-30T14:48:57;93826.91;;;33.75;19.56
56831;BME280;42713;42.676;23.352;2023-08-30T14:51:23;93813.38;;;33.24;20.34
56831;BME280;42713;42.676;23.352;2023-08-30T14:53:48;93824.09;;;32.77;20.63
56831;BME280;42713;42.676;23.352;2023-08-30T14:56:13;93832.72;;;32.33;22.66
56831;BME280;42713;42.676;23.352;2023-08-30T14:58:39;93827.88;;;32.13;24.02
56831;BME280;42713;42.676;23.352;2023-08-30T15:01:05;93826.28;;;31.81;25.58
56831;BME280;42713;42.676;23.352;2023-08-30T15:03:30;93832.94;;;32.11;26.43
56831;BME280;42713;42.676;23.352;2023-08-30T15:05:56;93825.25;;;32.44;26.08
56831;BME280;42713;42.676;23.352;2023-08-30T15:08:23;93821.34;;;32.11;26.56
56831;BME280;42713;42.676;23.352;2023-08-30T15:10:49;93833.00;;;31.59;27.71
56831;BME280;42713;42.676;23.352;2023-08-30T15:13:16;93828.16;;;31.88;27.65
56831;BME280;42713;42.676;23.352;2023-08-30T15:15:42;93824.06;;;31.65;27.12
56831;BME280;42713;42.676;23.352;2023-08-30T15:18:08;93831.69;;;32.20;26.59
56831;BME280;42713;42.676;23.352;2023-08-30T15:20:37;93850.19;;;32.63;26.63
56831;BME280;42713;42.676;23.352;2023-08-30T15:23:02;93832.09;;;32.87;25.81
56831;BME280;42713;42.676;23.352;2023-08-30T15:25:28;93845.97;;;32.58;26.32
56831;BME280;42713;42.676;23.352;2023-08-30T15:27:53;93872.66;;;32.64;26.28
56831;BME280;42713;42.676;23.352;2023-08-30T15:30:21;93860.41;;;32.52;26.32
56831;BME280;42713;42.676;23.352;2023-08-30T15:32:47;93855.31;;;32.57;26.13